Terminal Aerodrome Forecast
Issued by NWS

Home | Current Version | Previous Version | Text Only | Print | Product List | Glossary On
Versions: 1 2 3 4 5 6 7 8 9 10 11 12 13 14 15 16 17 18 19 20 21 22 23
000
FTUS45 KPSR 281300 AAA
TAFSDL
TAF AMD
KSDL 281316Z 2813/0112 VRB03KT P6SM VCSH BKN040 OVC060
     FM281700 18007KT P6SM BKN050 BKN080
     FM282100 24011G17KT P6SM VCSH SCT050 BKN100
     FM010100 20006KT P6SM VCSH FEW030 BKN050 OVC100=

USA.gov is the U.S. government's official web portal to all federal, state and local government web resources and services.